Time;durP1;ratioP1;P1;durP2;ratioP2;P2;SDS_P1;SDS_P2;PMS_P1;PMS_P2;Temp;Humidity;BMP_temperature;BMP_pressure;BME280_temperature;BME280_humidity;BME280_pressure;Samples;Min_cycle;Max_cycle;Signal;HPM_P1;HPM_P2
2021/01/26 00:04:06;;;;;;;0.20;0.00;;;4.80;99.90;;;;;;10393423;27;20624;-54
2021/01/26 00:09:27;;;;;;;0.60;0.17;;;4.70;99.90;;;;;;10393727;27;20090;-54
2021/01/26 00:14:48;;;;;;;10.43;0.40;;;4.70;99.90;;;;;;10391502;28;20104;-55
2021/01/26 00:20:11;;;;;;;2.10;0.28;;;4.80;99.90;;;;;;10395868;27;20132;-54
2021/01/26 00:25:36;;;;;;;0.65;0.20;;;4.70;99.90;;;;;;10396681;28;20524;-55
2021/01/26 00:30:57;;;;;;;0.10;0.05;;;4.80;99.90;;;;;;10388637;28;22323;-54
2021/01/26 00:36:18;;;;;;;0.15;0.10;;;4.80;99.90;;;;;;10390101;27;20037;-54
2021/01/26 00:41:39;;;;;;;0.15;0.05;;;4.70;99.90;;;;;;10385537;28;20053;-55
2021/01/26 00:47:00;;;;;;;0.55;0.10;;;4.60;99.90;;;;;;10381124;28;20504;-55
2021/01/26 00:52:21;;;;;;;1.92;0.10;;;4.50;99.90;;;;;;10388469;27;20124;-55
2021/01/26 00:57:42;;;;;;;5.55;0.17;;;4.30;99.90;;;;;;10390788;27;20037;-55
2021/01/26 01:03:05;;;;;;;1.27;0.13;;;4.20;99.90;;;;;;10391240;27;20033;-55
2021/01/26 01:08:26;;;;;;;2.42;0.20;;;4.20;99.90;;;;;;10389300;27;20301;-55
2021/01/26 01:13:47;;;;;;;0.93;0.10;;;4.10;99.90;;;;;;10399896;27;20041;-55
2021/01/26 01:19:08;;;;;;;0.32;0.10;;;4.20;99.90;;;;;;10392765;27;20068;-55
2021/01/26 01:24:29;;;;;;;0.15;0.05;;;4.30;99.90;;;;;;10380085;28;20061;-55
2021/01/26 01:29:50;;;;;;;12.30;1.20;;;4.30;99.90;;;;;;10389227;28;20045;-55
2021/01/26 01:35:11;;;;;;;2.70;0.17;;;4.40;99.90;;;;;;10389883;28;20037;-54
2021/01/26 01:40:34;;;;;;;2.10;0.10;;;4.30;99.90;;;;;;10391330;28;20041;-55
2021/01/26 01:45:55;;;;;;;0.93;0.20;;;4.30;99.90;;;;;;10391415;27;20548;-54
2021/01/26 01:51:23;;;;;;;0.95;0.10;;;4.40;99.90;;;;;;10381520;28;20408;-55
2021/01/26 01:56:59;;;;;;;3.92;0.10;;;4.30;99.90;;;;;;10392525;27;20033;-54
2021/01/26 02:02:20;;;;;;;0.00;0.00;;;4.20;99.90;;;;;;10378775;27;20038;-55
2021/01/26 02:07:42;;;;;;;0.20;0.10;;;4.10;99.90;;;;;;10385882;27;20124;-55
2021/01/26 02:13:03;;;;;;;0.17;0.03;;;4.10;99.90;;;;;;10393700;27;20025;-55
2021/01/26 02:18:58;;;;;;;6.97;1.73;;;4.10;99.90;;;;;;10392552;27;20065;-55
2021/01/26 02:24:31;;;;;;;4.60;0.20;;;3.90;99.90;;;;;;10396890;27;20094;-55
2021/01/26 02:29:58;;;;;;;1.60;0.30;;;3.90;99.90;;;;;;10403135;27;20068;-55
2021/01/26 02:35:33;;;;;;;0.28;0.13;;;4.00;99.90;;;;;;10393083;27;20048;-55
2021/01/26 02:41:06;;;;;;;0.75;0.20;;;4.10;99.90;;;;;;10398289;27;20041;-55
2021/01/26 02:46:42;;;;;;;0.10;0.00;;;4.00;99.90;;;;;;10390276;27;20333;-55
2021/01/26 02:52:10;;;;;;;0.13;0.05;;;3.90;99.90;;;;;;10394259;27;20105;-55
2021/01/26 02:58:11;;;;;;;6.72;0.32;;;4.00;99.90;;;;;;10400428;27;20037;-55
2021/01/26 03:03:40;;;;;;;1.88;0.30;;;4.00;99.90;;;;;;10405572;27;20732;-55
2021/01/26 03:09:12;;;;;;;6.72;0.20;;;4.10;99.90;;;;;;10400975;28;20056;-55
2021/01/26 03:14:48;;;;;;;0.05;0.00;;;4.20;99.90;;;;;;10399744;27;20091;-55
2021/01/26 03:20:18;;;;;;;0.10;0.00;;;4.30;99.90;;;;;;10401301;27;20033;-55
2021/01/26 03:25:46;;;;;;;0.17;0.05;;;4.40;99.90;;;;;;10393235;28;20049;-55
2021/01/26 03:31:11;;;;;;;0.00;0.00;;;4.30;99.90;;;;;;10394240;27;20037;-55
2021/01/26 03:36:32;;;;;;;3.00;0.30;;;4.30;99.90;;;;;;10396509;28;20089;-55
2021/01/26 03:41:53;;;;;;;2.38;0.40;;;4.30;99.90;;;;;;10395980;28;20473;-55
2021/01/26 03:47:48;;;;;;;1.50;0.28;;;4.30;99.90;;;;;;10393596;28;20048;-55
2021/01/26 03:53:23;;;;;;;1.33;0.40;;;4.40;99.90;;;;;;10390681;27;20125;-55
2021/01/26 03:59:02;;;;;;;0.75;0.10;;;4.40;99.90;;;;;;10383582;27;20041;-55
2021/01/26 04:04:32;;;;;;;1.55;0.50;;;4.40;99.90;;;;;;10394031;27;20094;-55
2021/01/26 04:10:01;;;;;;;5.25;1.65;;;4.20;99.90;;;;;;10393815;27;20121;-55
2021/01/26 04:15:31;;;;;;;2.15;0.22;;;4.20;99.90;;;;;;10388737;27;20029;-55
2021/01/26 04:20:53;;;;;;;1.85;0.38;;;4.30;99.90;;;;;;10393820;27;20085;-55
2021/01/26 04:26:18;;;;;;;0.05;0.00;;;4.40;99.90;;;;;;10377511;28;20145;-55
2021/01/26 04:31:39;;;;;;;0.00;0.00;;;4.40;99.90;;;;;;10395825;27;20045;-55
2021/01/26 04:37:00;;;;;;;5.35;0.20;;;4.30;99.90;;;;;;10396332;27;20047;-55
2021/01/26 04:42:26;;;;;;;1.23;0.17;;;4.30;99.90;;;;;;10392973;27;20052;-55
2021/01/26 04:48:08;;;;;;;0.57;0.32;;;4.20;99.90;;;;;;10395678;28;20120;-55
2021/01/26 04:53:38;;;;;;;0.45;0.00;;;4.20;99.90;;;;;;10392073;27;20599;-55
2021/01/26 04:59:28;;;;;;;2.40;0.25;;;4.20;99.90;;;;;;10393379;27;20232;-55
2021/01/26 05:05:12;;;;;;;1.85;0.57;;;4.20;99.90;;;;;;10396080;28;20033;-55
2021/01/26 05:10:41;;;;;;;1.98;0.30;;;4.30;99.90;;;;;;10390872;27;20063;-55
2021/01/26 05:16:21;;;;;;;3.97;0.73;;;4.30;99.90;;;;;;10393907;28;20041;-55
2021/01/26 05:21:50;;;;;;;0.15;0.15;;;4.30;99.90;;;;;;10389917;27;20372;-55
2021/01/26 05:27:11;;;;;;;;;;;4.30;99.90;;;;;;10394071;27;21146;-55
2021/01/26 05:32:32;;;;;;;0.05;0.05;;;4.40;99.90;;;;;;10395822;27;19956;-55
2021/01/26 05:37:54;;;;;;;0.98;0.10;;;4.30;99.90;;;;;;10393472;27;20076;-55
2021/01/26 05:43:18;;;;;;;0.10;0.05;;;4.20;99.90;;;;;;10399578;28;20492;-55
2021/01/26 05:48:50;;;;;;;5.68;0.85;;;4.30;99.90;;;;;;10399202;27;20419;-55
2021/01/26 05:54:20;;;;;;;0.22;0.00;;;4.30;99.90;;;;;;10395852;28;20044;-55
2021/01/26 05:59:41;;;;;;;1.00;0.20;;;4.40;99.90;;;;;;10396491;27;20044;-55
2021/01/26 06:05:16;;;;;;;0.35;0.13;;;4.30;99.90;;;;;;10383291;27;20094;-55
2021/01/26 06:10:40;;;;;;;2.80;0.40;;;4.30;99.90;;;;;;10398379;27;20048;-55
2021/01/26 06:16:13;;;;;;;1.58;0.43;;;4.10;99.90;;;;;;10401027;27;20543;-55
2021/01/26 06:21:47;;;;;;;0.10;0.05;;;4.10;99.90;;;;;;10395283;27;20052;-55
2021/01/26 06:27:23;;;;;;;0.17;0.13;;;4.30;99.90;;;;;;10396045;27;20105;-55
2021/01/26 06:33:15;;;;;;;9.50;0.80;;;4.40;99.90;;;;;;10396556;27;20464;-55
2021/01/26 06:39:06;;;;;;;3.92;0.38;;;4.40;99.90;;;;;;10401955;27;20527;-55
2021/01/26 06:45:04;;;;;;;1.63;0.10;;;4.40;99.90;;;;;;10396836;27;20419;-55
2021/01/26 06:50:43;;;;;;;2.15;0.05;;;4.30;99.90;;;;;;10399532;27;20044;-55
2021/01/26 06:56:07;;;;;;;;;;;4.30;99.90;;;;;;10396457;28;20389;-55
2021/01/26 07:01:56;;;;;;;0.32;0.10;;;4.20;99.90;;;;;;10397904;27;19917;-55
2021/01/26 07:07:52;;;;;;;1.08;0.30;;;4.10;99.90;;;;;;10394401;27;20171;-55
2021/01/26 07:13:17;;;;;;;0.88;0.10;;;4.30;99.90;;;;;;10395635;28;20171;-55
2021/01/26 07:18:56;;;;;;;0.00;0.00;;;4.20;99.90;;;;;;10379756;27;20066;-55
2021/01/26 07:24:34;;;;;;;0.50;0.20;;;4.10;99.90;;;;;;10390090;28;20262;-55
2021/01/26 07:30:35;;;;;;;0.15;0.10;;;4.10;99.90;;;;;;10398055;28;20056;-55
2021/01/26 07:36:34;;;;;;;0.15;0.03;;;4.00;99.90;;;;;;10395720;27;20113;-55
2021/01/26 07:42:10;;;;;;;0.17;0.05;;;3.90;99.90;;;;;;10394407;28;20148;-55
2021/01/26 07:47:52;;;;;;;0.00;0.00;;;3.90;99.90;;;;;;10400494;27;20041;-55
2021/01/26 07:53:20;;;;;;;0.32;0.10;;;4.00;99.90;;;;;;10384211;28;20044;-55
2021/01/26 07:58:46;;;;;;;0.10;0.10;;;3.90;99.90;;;;;;10397248;27;20515;-55
2021/01/26 08:04:08;;;;;;;0.00;0.00;;;3.90;99.90;;;;;;10398779;27;20501;-55
2021/01/26 08:09:39;;;;;;;0.55;0.10;;;3.90;99.90;;;;;;10397022;27;20033;-55
2021/01/26 08:15:13;;;;;;;0.00;0.00;;;3.90;99.90;;;;;;10404048;27;20039;-55
2021/01/26 08:20:34;;;;;;;0.45;0.28;;;3.90;99.90;;;;;;10395243;28;20116;-55
2021/01/26 08:26:12;;;;;;;0.57;0.30;;;4.00;99.90;;;;;;10395373;27;20057;-55
2021/01/26 08:31:38;;;;;;;1.98;0.30;;;4.10;99.90;;;;;;10396884;27;20041;-55
2021/01/26 08:37:08;;;;;;;0.10;0.10;;;4.30;99.90;;;;;;10399712;28;20101;-55
2021/01/26 08:42:41;;;;;;;0.82;0.28;;;4.40;99.90;;;;;;10410793;28;20041;-56
2021/01/26 08:48:07;;;;;;;0.55;0.10;;;4.40;99.90;;;;;;10423715;28;20079;-55
2021/01/26 08:53:28;;;;;;;0.57;0.20;;;4.40;99.90;;;;;;10391949;27;20037;-55
2021/01/26 08:58:57;;;;;;;0.38;0.10;;;4.40;99.90;;;;;;10395672;27;20455;-55
2021/01/26 09:04:21;;;;;;;5.43;0.25;;;4.40;99.90;;;;;;10396756;27;20484;-55
2021/01/26 09:09:48;;;;;;;2.45;0.20;;;4.40;99.90;;;;;;10395726;27;20033;-55
2021/01/26 09:15:14;;;;;;;0.22;0.00;;;4.50;99.90;;;;;;10393932;27;20037;-55
2021/01/26 09:20:36;;;;;;;0.30;0.20;;;4.70;99.90;;;;;;10396462;27;20052;-55
2021/01/26 09:25:58;;;;;;;4.30;0.22;;;4.80;99.90;;;;;;10397048;28;20504;-55
2021/01/26 09:31:25;;;;;;;4.68;0.30;;;4.90;99.90;;;;;;10394265;27;20048;-55
2021/01/26 09:36:46;;;;;;;0.30;0.10;;;5.10;99.90;;;;;;10389672;28;20037;-55
2021/01/26 09:42:18;;;;;;;0.00;0.00;;;4.80;99.90;;;;;;10392576;28;20045;-55
2021/01/26 09:47:39;;;;;;;1.00;0.10;;;4.70;99.90;;;;;;10394356;27;20117;-55
2021/01/26 09:53:03;;;;;;;0.22;0.03;;;4.80;99.90;;;;;;10397865;27;20030;-55
2021/01/26 09:58:25;;;;;;;0.45;0.10;;;5.00;99.90;;;;;;10395553;27;20453;-55
2021/01/26 10:03:47;;;;;;;0.65;0.65;;;5.10;99.90;;;;;;10394504;28;20552;-55
2021/01/26 10:09:29;;;;;;;0.75;0.20;;;5.30;99.90;;;;;;10395822;27;20065;-55
2021/01/26 10:15:27;;;;;;;0.75;0.30;;;5.40;99.90;;;;;;10380439;27;20045;-55
2021/01/26 10:20:49;;;;;;;1.55;0.38;;;5.60;99.90;;;;;;10303057;28;20040;-55
2021/01/26 10:26:23;;;;;;;2.65;0.20;;;5.80;99.90;;;;;;10390698;27;20063;-55
2021/01/26 10:31:50;;;;;;;14.10;0.80;;;5.90;99.90;;;;;;10398013;28;20069;-55
2021/01/26 10:37:22;;;;;;;0.57;0.30;;;6.20;99.90;;;;;;10399871;27;20037;-55
2021/01/26 10:42:56;;;;;;;0.10;0.00;;;6.30;99.90;;;;;;10395989;27;20034;-55
2021/01/26 10:48:28;;;;;;;4.25;1.02;;;6.30;99.90;;;;;;10396085;28;20032;-55
2021/01/26 10:53:50;;;;;;;0.10;0.00;;;6.30;99.90;;;;;;10394139;27;20446;-55
2021/01/26 10:59:11;;;;;;;1.38;0.10;;;6.10;99.90;;;;;;10399747;27;20127;-55
2021/01/26 11:04:32;;;;;;;0.40;0.17;;;6.10;99.90;;;;;;10394927;27;20041;-55
2021/01/26 11:09:53;;;;;;;0.05;0.05;;;6.10;99.90;;;;;;10396378;27;20238;-55
2021/01/26 11:15:18;;;;;;;0.43;0.10;;;6.00;99.90;;;;;;10396887;27;20033;-55
2021/01/26 11:20:40;;;;;;;0.20;0.10;;;6.10;99.90;;;;;;10401653;27;20512;-55
2021/01/26 11:26:03;;;;;;;0.55;0.20;;;6.20;99.90;;;;;;10401953;27;20723;-55
2021/01/26 11:31:24;;;;;;;3.03;0.30;;;6.40;99.90;;;;;;10400908;27;20052;-55
2021/01/26 11:36:45;;;;;;;0.60;0.20;;;6.50;99.90;;;;;;10393970;28;20037;-55
2021/01/26 11:42:07;;;;;;;0.80;0.30;;;6.70;99.90;;;;;;10397779;27;20353;-55
2021/01/26 11:47:28;;;;;;;2.20;0.52;;;7.40;99.90;;;;;;10393495;27;20098;-55
2021/01/26 11:52:50;;;;;;;0.45;0.15;;;8.90;99.90;;;;;;10392098;27;20041;-55
2021/01/26 11:58:11;;;;;;;0.47;0.10;;;10.60;99.90;;;;;;10398264;27;20067;-55
2021/01/26 12:03:33;;;;;;;0.50;0.30;;;11.20;99.90;;;;;;10398463;27;20037;-55
2021/01/26 12:08:54;;;;;;;0.40;0.20;;;10.50;99.90;;;;;;10394184;27;20045;-55
2021/01/26 12:14:15;;;;;;;0.98;0.47;;;9.10;99.90;;;;;;10396089;27;21177;-55
2021/01/26 12:19:36;;;;;;;0.17;0.03;;;8.10;99.90;;;;;;10395037;27;20381;-55
2021/01/26 12:24:57;;;;;;;3.50;0.20;;;7.70;99.90;;;;;;10396298;27;20060;-54
2021/01/26 12:30:18;;;;;;;0.73;0.20;;;7.30;99.90;;;;;;10395031;28;20049;-55
2021/01/26 12:35:40;;;;;;;0.43;0.10;;;7.00;99.90;;;;;;10394177;28;20720;-55
2021/01/26 12:41:01;;;;;;;0.30;0.10;;;7.10;99.90;;;;;;10393211;27;20468;-55
2021/01/26 12:46:22;;;;;;;1.27;0.35;;;7.00;99.90;;;;;;10395587;27;20049;-55
2021/01/26 12:51:43;;;;;;;1.40;0.73;;;7.00;99.90;;;;;;10396279;28;20507;-55
2021/01/26 12:57:04;;;;;;;2.53;0.40;;;6.70;99.90;;;;;;10392862;27;20041;-55
2021/01/26 13:02:26;;;;;;;1.75;0.40;;;6.70;99.90;;;;;;10388979;27;20093;-55
2021/01/26 13:07:47;;;;;;;1.00;0.40;;;6.60;99.90;;;;;;10390658;27;20047;-55
2021/01/26 13:13:08;;;;;;;3.15;0.73;;;6.50;99.90;;;;;;10393123;28;20123;-55
2021/01/26 13:18:29;;;;;;;3.42;0.30;;;6.50;99.90;;;;;;10392333;27;20080;-55
2021/01/26 13:23:50;;;;;;;3.65;1.77;;;6.70;99.90;;;;;;10390581;27;20057;-55
2021/01/26 13:29:11;;;;;;;1.08;0.47;;;8.60;99.90;;;;;;10388652;27;20044;-55
2021/01/26 13:34:32;;;;;;;2.53;0.70;;;8.60;99.90;;;;;;10393596;27;20579;-55
2021/01/26 13:39:53;;;;;;;1.23;0.85;;;8.90;99.90;;;;;;10393539;28;20686;-55
2021/01/26 13:45:15;;;;;;;0.45;0.25;;;10.90;99.90;;;;;;10387620;28;20230;-55
2021/01/26 13:50:37;;;;;;;1.25;0.40;;;11.10;99.90;;;;;;10390188;28;20088;-55
2021/01/26 13:55:58;;;;;;;0.68;0.55;;;11.00;99.90;;;;;;10393620;28;20221;-55
2021/01/26 14:01:19;;;;;;;6.35;0.43;;;11.10;99.90;;;;;;10400397;27;20522;-55
2021/01/26 14:06:40;;;;;;;1.20;0.45;;;10.00;99.90;;;;;;10399073;28;20492;-54
2021/01/26 14:12:01;;;;;;;0.60;0.20;;;9.50;99.90;;;;;;10393733;27;20331;-55
2021/01/26 14:17:22;;;;;;;0.63;0.22;;;9.10;99.90;;;;;;10399408;27;20073;-54
2021/01/26 14:22:44;;;;;;;0.63;0.32;;;8.30;99.90;;;;;;10385920;28;20114;-55
2021/01/26 14:28:05;;;;;;;0.82;0.22;;;8.20;99.90;;;;;;10397417;27;20384;-55
2021/01/26 14:33:27;;;;;;;2.88;0.52;;;8.30;99.90;;;;;;10395910;28;20105;-55
2021/01/26 14:38:48;;;;;;;1.35;0.40;;;8.80;99.90;;;;;;10397829;28;20030;-55
2021/01/26 14:44:08;;;;;;;1.77;0.60;;;8.90;99.90;;;;;;10399569;27;20041;-54
2021/01/26 14:49:30;;;;;;;2.13;0.63;;;9.50;99.90;;;;;;10404188;27;20041;-54
2021/01/26 14:54:51;;;;;;;0.85;0.35;;;9.70;99.90;;;;;;10399559;27;20046;-54
2021/01/26 15:00:16;;;;;;;5.05;0.47;;;10.10;99.90;;;;;;10398087;28;20420;-54
2021/01/26 15:05:37;;;;;;;2.75;0.35;;;10.70;99.90;;;;;;10398916;28;20041;-54
2021/01/26 15:10:58;;;;;;;0.80;0.20;;;10.40;99.90;;;;;;10398868;27;20045;-54
2021/01/26 15:16:19;;;;;;;1.30;0.32;;;9.50;99.90;;;;;;10398016;27;20083;-54
2021/01/26 15:21:41;;;;;;;1.65;0.40;;;8.50;99.90;;;;;;10396426;28;20041;-54
2021/01/26 15:27:02;;;;;;;3.58;0.22;;;7.60;99.90;;;;;;10384945;27;20037;-54
2021/01/26 15:32:23;;;;;;;0.70;0.30;;;7.00;99.90;;;;;;10395620;28;20396;-54
2021/01/26 15:37:47;;;;;;;1.33;0.25;;;6.70;99.90;;;;;;10395692;28;20049;-54
2021/01/26 15:43:08;;;;;;;2.00;0.25;;;6.50;99.90;;;;;;10396222;28;20026;-54
2021/01/26 15:48:29;;;;;;;0.60;0.40;;;6.20;99.90;;;;;;10394808;27;20041;-54
2021/01/26 15:53:50;;;;;;;0.20;0.10;;;6.00;99.90;;;;;;10396835;27;20150;-54
2021/01/26 15:59:11;;;;;;;1.08;0.35;;;5.80;99.90;;;;;;10399783;27;20463;-54
2021/01/26 16:04:32;;;;;;;1.67;0.50;;;5.60;99.90;;;;;;10394955;27;20481;-54
2021/01/26 16:09:53;;;;;;;1.05;0.47;;;5.30;99.90;;;;;;10399607;28;20387;-54
2021/01/26 16:15:15;;;;;;;0.93;0.50;;;5.30;99.90;;;;;;10402229;28;20049;-54
2021/01/26 16:20:36;;;;;;;9.70;1.65;;;5.10;99.90;;;;;;10399487;28;20135;-54
2021/01/26 16:25:57;;;;;;;0.60;0.30;;;5.00;99.90;;;;;;10401068;27;20062;-54
2021/01/26 16:31:18;;;;;;;1.17;0.60;;;5.00;99.90;;;;;;10397713;27;20064;-54
2021/01/26 16:36:40;;;;;;;2.33;0.45;;;5.00;99.90;;;;;;10393903;28;20619;-54
2021/01/26 16:42:01;;;;;;;1.67;0.32;;;4.90;99.90;;;;;;10395770;27;20544;-54
2021/01/26 16:47:22;;;;;;;1.95;0.38;;;4.80;99.90;;;;;;10391714;27;20041;-54
2021/01/26 16:52:43;;;;;;;0.93;0.40;;;4.80;99.90;;;;;;10382650;28;20048;-54
2021/01/26 16:58:04;;;;;;;1.70;0.43;;;4.80;99.90;;;;;;10399621;27;20046;-54
2021/01/26 17:03:25;;;;;;;1.90;0.40;;;4.80;99.90;;;;;;10380426;28;20048;-54
2021/01/26 17:08:46;;;;;;;2.10;0.77;;;4.80;99.90;;;;;;10392074;28;20049;-53
2021/01/26 17:14:07;;;;;;;1.13;0.75;;;4.80;99.90;;;;;;10394354;28;20037;-54
2021/01/26 17:19:28;;;;;;;0.50;0.28;;;4.80;99.90;;;;;;10393472;28;20453;-54
2021/01/26 17:24:53;;;;;;;1.45;0.55;;;4.70;99.90;;;;;;10394684;27;20151;-54
2021/01/26 17:30:17;;;;;;;0.63;0.40;;;4.70;99.90;;;;;;10393675;27;20030;-54
2021/01/26 17:35:39;;;;;;;1.40;1.15;;;4.70;99.90;;;;;;10400458;28;20033;-54
2021/01/26 17:40:59;;;;;;;1.48;0.32;;;4.70;99.90;;;;;;10412139;28;20033;-54
2021/01/26 17:46:20;;;;;;;1.13;0.65;;;4.70;99.90;;;;;;10394691;28;20042;-54
2021/01/26 17:51:41;;;;;;;3.55;1.10;;;4.70;99.90;;;;;;10396435;27;20090;-54
2021/01/26 17:57:03;;;;;;;1.75;0.68;;;4.70;99.90;;;;;;10396392;27;20033;-54
2021/01/26 18:02:24;;;;;;;1.77;0.82;;;4.70;99.90;;;;;;10392397;28;20583;-54
2021/01/26 18:07:46;;;;;;;1.92;0.70;;;4.70;99.90;;;;;;10392740;27;20564;-54
2021/01/26 18:13:07;;;;;;;4.38;1.77;;;4.60;99.90;;;;;;10391173;27;20152;-53
2021/01/26 18:18:28;;;;;;;2.10;0.70;;;4.70;99.90;;;;;;10392778;27;20625;-54
2021/01/26 18:23:49;;;;;;;2.30;1.23;;;4.70;99.90;;;;;;10387170;27;20524;-54
2021/01/26 18:29:11;;;;;;;5.50;1.55;;;4.70;99.90;;;;;;10393228;27;20041;-54
2021/01/26 18:34:32;;;;;;;2.28;1.10;;;4.60;99.90;;;;;;10397775;27;20091;-54
2021/01/26 18:39:52;;;;;;;15.13;2.15;;;4.60;99.90;;;;;;10394058;27;20045;-54
2021/01/26 18:45:18;;;;;;;4.22;1.38;;;4.70;99.90;;;;;;10395765;27;20396;-53
2021/01/26 18:50:41;;;;;;;2.75;1.88;;;4.60;99.90;;;;;;10399980;27;20531;-53
2021/01/26 18:56:02;;;;;;;2.65;1.58;;;4.70;99.90;;;;;;10405193;27;20069;-53
2021/01/26 19:01:23;;;;;;;3.17;1.58;;;4.80;99.90;;;;;;10398689;27;20039;-53
2021/01/26 19:06:44;;;;;;;3.15;1.73;;;4.70;99.90;;;;;;10405887;27;20068;-53
2021/01/26 19:12:06;;;;;;;4.97;1.60;;;4.60;99.90;;;;;;10403249;27;20596;-54
2021/01/26 19:17:27;;;;;;;6.35;2.30;;;4.60;99.90;;;;;;10404342;27;20401;-53
2021/01/26 19:22:48;;;;;;;5.78;1.67;;;4.50;99.90;;;;;;10402111;27;20364;-53
2021/01/26 19:28:09;;;;;;;3.67;1.67;;;4.40;99.90;;;;;;10413667;27;20110;-54
2021/01/26 19:33:30;;;;;;;5.55;2.30;;;4.50;99.90;;;;;;10402735;27;20516;-53
2021/01/26 19:38:52;;;;;;;4.63;2.33;;;4.60;99.90;;;;;;10406231;27;20048;-54
2021/01/26 19:44:14;;;;;;;4.10;1.40;;;4.50;99.90;;;;;;10402672;27;20041;-54
2021/01/26 19:49:35;;;;;;;4.05;2.45;;;4.50;99.90;;;;;;10389734;27;20189;-54
2021/01/26 19:54:56;;;;;;;5.55;2.05;;;4.50;99.90;;;;;;10404879;27;20509;-53
2021/01/26 20:00:19;;;;;;;3.78;1.83;;;4.50;99.90;;;;;;10402701;27;20052;-53
2021/01/26 20:05:40;;;;;;;3.47;1.88;;;4.60;99.90;;;;;;10404479;27;20053;-53
2021/01/26 20:11:01;;;;;;;3.63;1.77;;;4.50;99.90;;;;;;10402500;27;20656;-54
2021/01/26 20:16:22;;;;;;;6.90;2.53;;;4.40;99.90;;;;;;10404426;27;20045;-54
2021/01/26 20:21:43;;;;;;;10.50;2.65;;;4.40;99.90;;;;;;10404529;27;20416;-53
2021/01/26 20:27:05;;;;;;;6.70;2.40;;;4.40;99.90;;;;;;10404501;27;20041;-54
2021/01/26 20:32:26;;;;;;;5.05;2.33;;;4.50;99.90;;;;;;10392703;27;20117;-54
2021/01/26 20:37:47;;;;;;;4.90;2.08;;;4.40;99.90;;;;;;10405076;27;20033;-54
2021/01/26 20:43:09;;;;;;;9.05;2.58;;;4.50;99.90;;;;;;10395377;27;20053;-53
2021/01/26 20:48:30;;;;;;;6.55;2.20;;;4.40;99.90;;;;;;10399184;27;20030;-54
2021/01/26 20:53:50;;;;;;;4.00;2.40;;;4.50;99.90;;;;;;10398791;27;20626;-53
2021/01/26 20:59:12;;;;;;;4.18;2.38;;;4.40;99.90;;;;;;10402206;27;20413;-54
2021/01/26 21:04:33;;;;;;;6.38;2.38;;;4.40;99.90;;;;;;10400379;27;20121;-54
2021/01/26 21:09:54;;;;;;;8.18;3.53;;;4.40;99.90;;;;;;10396719;27;20037;-54
2021/01/26 21:15:19;;;;;;;4.93;2.40;;;4.30;99.90;;;;;;10401678;27;20249;-53
2021/01/26 21:20:40;;;;;;;4.43;1.63;;;4.20;99.90;;;;;;10402534;27;20082;-54
2021/01/26 21:26:01;;;;;;;6.30;2.17;;;4.20;99.90;;;;;;10400386;27;20155;-54
2021/01/26 21:31:23;;;;;;;8.30;2.30;;;4.10;99.90;;;;;;10388452;27;20045;-53
2021/01/26 21:36:44;;;;;;;5.43;2.67;;;4.10;99.90;;;;;;10398684;27;20117;-54
2021/01/26 21:42:07;;;;;;;5.82;2.80;;;4.00;99.90;;;;;;10375545;27;20052;-54
2021/01/26 21:47:27;;;;;;;8.98;2.58;;;4.00;99.90;;;;;;10387424;27;20084;-53
2021/01/26 21:52:48;;;;;;;6.82;2.40;;;4.00;99.90;;;;;;10393020;27;20540;-54
2021/01/26 21:58:10;;;;;;;15.55;4.00;;;4.00;99.90;;;;;;10388066;28;20543;-54
2021/01/26 22:03:32;;;;;;;7.82;2.97;;;4.00;99.90;;;;;;10390230;27;20095;-54
2021/01/26 22:08:53;;;;;;;10.45;3.55;;;4.00;99.90;;;;;;10386707;28;20040;-53
2021/01/26 22:14:14;;;;;;;8.23;2.05;;;4.00;99.90;;;;;;10388770;27;20049;-53
2021/01/26 22:19:35;;;;;;;4.85;2.65;;;3.90;99.90;;;;;;10387457;28;20094;-54
2021/01/26 22:24:56;;;;;;;3.13;1.80;;;3.90;99.90;;;;;;10398105;27;20068;-53
2021/01/26 22:30:17;;;;;;;5.40;2.35;;;3.80;99.90;;;;;;10391503;27;20119;-53
2021/01/26 22:35:38;;;;;;;3.50;2.15;;;3.80;99.90;;;;;;10396962;27;20041;-54
2021/01/26 22:40:59;;;;;;;5.32;2.17;;;3.80;99.90;;;;;;10400203;27;20160;-54
2021/01/26 22:46:21;;;;;;;7.72;3.00;;;3.80;99.90;;;;;;10385640;27;20496;-53
2021/01/26 22:51:42;;;;;;;5.90;3.03;;;3.70;99.90;;;;;;10393660;27;20030;-54
2021/01/26 22:57:04;;;;;;;5.65;2.28;;;3.80;99.90;;;;;;10394344;27;20048;-53
2021/01/26 23:02:25;;;;;;;8.27;2.33;;;3.60;99.90;;;;;;10379672;27;20034;-53
2021/01/26 23:07:46;;;;;;;4.80;2.15;;;3.70;99.90;;;;;;10395691;28;20064;-53
2021/01/26 23:13:08;;;;;;;4.50;1.65;;;3.70;99.90;;;;;;10396079;27;20551;-53
2021/01/26 23:18:30;;;;;;;6.30;2.30;;;3.70;99.90;;;;;;10393672;28;20033;-53
2021/01/26 23:23:51;;;;;;;4.55;1.80;;;3.60;99.90;;;;;;10389835;27;20067;-54
2021/01/26 23:29:12;;;;;;;2.22;1.05;;;3.60;99.90;;;;;;10393010;27;20068;-53
2021/01/26 23:34:33;;;;;;;3.92;1.77;;;3.70;99.90;;;;;;10383692;28;20048;-53
2021/01/26 23:39:54;;;;;;;2.78;1.13;;;3.60;99.90;;;;;;10394246;27;20061;-53
2021/01/26 23:45:18;;;;;;;3.85;1.27;;;3.60;99.90;;;;;;10391689;27;20141;-54
2021/01/26 23:50:47;;;;;;;3.60;2.03;;;3.40;99.90;;;;;;10397426;27;20056;-53
2021/01/26 23:56:08;;;;;;;3.13;1.20;;;3.50;99.90;;;;;;10394426;27;20415;-53
